Time;durP1;ratioP1;P1;durP2;ratioP2;P2;SDS_P1;SDS_P2;PMS_P1;PMS_P2;Temp;Humidity;BMP_temperature;BMP_pressure;BME280_temperature;BME280_humidity;BME280_pressure;Samples;Min_cycle;Max_cycle;Signal;HPM_P1;HPM_P2
2022/11/16 00:00:34;;;;;;;;;;;;;;;19.58;60.92;96174.81;5134640;27;19914;-36
2022/11/16 00:03:03;;;;;;;;;;;;;;;19.62;60.64;96196.59;5134438;27;20362;-37
2022/11/16 00:05:28;;;;;;;;;;;;;;;19.64;60.34;96178.34;5134784;27;19918;-37
2022/11/16 00:07:53;;;;;;;;;;;;;;;19.64;60.52;96172.09;5134474;27;19907;-39
2022/11/16 00:10:19;;;;;;;;;;;;;;;19.60;60.51;96133.81;5134728;27;19913;-36
2022/11/16 00:12:44;;;;;;;;;;;;;;;19.59;60.65;96140.56;5137212;27;19918;-35
2022/11/16 00:15:09;;;;;;;;;;;;;;;19.59;60.45;96142.56;5138415;27;19908;-35
2022/11/16 00:17:34;;;;;;;;;;;;;;;19.59;60.58;96118.56;5138580;27;19914;-35
2022/11/16 00:20:00;;;;;;;;;;;;;;;19.62;60.41;96097.56;5138464;27;19960;-37
2022/11/16 00:22:25;;;;;;;;;;;;;;;19.56;60.63;96127.78;5138351;27;19914;-35
2022/11/16 00:24:50;;;;;;;;;;;;;;;19.54;60.63;96124.00;5138190;27;19915;-35
2022/11/16 00:27:16;;;;;;;;;;;;;;;19.62;60.42;96147.81;5138811;27;19914;-36
2022/11/16 00:29:41;;;;;;;;;;;;;;;19.58;60.69;96141.78;5138251;27;20271;-35
2022/11/16 00:32:06;;;;;;;;;;;;;;;19.56;60.63;96121.53;5137999;27;20010;-35
2022/11/16 00:34:32;;;;;;;;;;;;;;;19.48;60.95;96126.72;5138446;27;19911;-38
2022/11/16 00:36:57;;;;;;;;;;;;;;;19.43;60.57;96138.44;5138121;27;19911;-35
2022/11/16 00:39:22;;;;;;;;;;;;;;;19.43;60.74;96124.69;5137823;27;19907;-35
2022/11/16 00:41:48;;;;;;;;;;;;;;;19.45;60.56;96157.94;5138158;27;19907;-35
2022/11/16 00:44:13;;;;;;;;;;;;;;;19.51;60.40;96136.03;5138266;27;20286;-35
2022/11/16 00:46:39;;;;;;;;;;;;;;;19.51;60.43;96120.28;5137743;27;19919;-35
2022/11/16 00:49:04;;;;;;;;;;;;;;;19.51;60.65;96128.53;5137882;27;19908;-36
2022/11/16 00:51:30;;;;;;;;;;;;;;;19.51;60.40;96114.00;5137909;27;19911;-35
2022/11/16 00:53:55;;;;;;;;;;;;;;;19.53;60.34;96109.53;5137616;27;20370;-37
2022/11/16 00:56:21;;;;;;;;;;;;;;;19.46;60.66;96098.19;5137610;27;19911;-37
2022/11/16 00:58:46;;;;;;;;;;;;;;;19.45;60.59;96088.44;5138009;27;19907;-37
2022/11/16 01:01:11;;;;;;;;;;;;;;;19.54;60.39;96091.75;5138833;27;20366;-36
2022/11/16 01:03:37;;;;;;;;;;;;;;;19.50;60.51;96080.25;5155923;27;20393;-35
2022/11/16 01:06:04;;;;;;;;;;;;;;;19.55;60.27;96079.50;5158191;27;19907;-36
2022/11/16 01:08:29;;;;;;;;;;;;;;;19.55;60.08;96085.00;5158412;27;19906;-37
2022/11/16 01:10:55;;;;;;;;;;;;;;;19.55;60.17;96087.00;5158236;27;20338;-36
2022/11/16 01:13:20;;;;;;;;;;;;;;;19.57;60.35;96084.53;5157543;27;20367;-36
2022/11/16 01:15:46;;;;;;;;;;;;;;;19.49;60.20;96073.25;5158068;27;19907;-36
2022/11/16 01:18:11;;;;;;;;;;;;;;;19.42;60.57;96079.16;5158441;27;20423;-36
2022/11/16 01:20:39;;;;;;;;;;;;;;;19.43;60.43;96072.44;5157951;27;19950;-35
2022/11/16 01:23:04;;;;;;;;;;;;;;;19.43;60.35;96080.69;5156440;27;21358;-35
2022/11/16 01:25:30;;;;;;;;;;;;;;;19.49;60.09;96065.00;5158083;27;19907;-35
2022/11/16 01:27:55;;;;;;;;;;;;;;;19.54;60.03;96063.50;5157828;27;20374;-38
2022/11/16 01:30:20;;;;;;;;;;;;;;;19.47;60.48;96056.47;5157921;27;19997;-35
2022/11/16 01:32:46;;;;;;;;;;;;;;;19.52;59.78;96061.28;5157486;27;19934;-37
2022/11/16 01:35:14;;;;;;;;;;;;;;;19.46;60.44;96052.19;5157691;27;20350;-36
2022/11/16 01:37:40;;;;;;;;;;;;;;;19.47;60.27;96055.69;5157619;27;19907;-35
2022/11/16 01:40:05;;;;;;;;;;;;;;;19.44;60.18;96053.94;5157559;27;19914;-35
2022/11/16 01:42:32;;;;;;;;;;;;;;;19.46;60.36;96063.19;5157438;27;19914;-35
2022/11/16 01:45:03;;;;;;;;;;;;;;;19.40;60.42;96040.44;5157477;27;19930;-37
2022/11/16 01:47:29;;;;;;;;;;;;;;;19.45;60.21;96041.69;5157486;27;20270;-36
2022/11/16 01:49:59;;;;;;;;;;;;;;;19.41;60.46;96039.16;5157447;27;19907;-36
2022/11/16 01:52:28;;;;;;;;;;;;;;;19.40;60.37;96042.44;5157374;27;19915;-35
2022/11/16 01:54:54;;;;;;;;;;;;;;;19.35;60.74;96030.91;5157324;27;20355;-36
2022/11/16 01:57:23;;;;;;;;;;;;;;;19.39;60.56;96022.44;5157415;27;20002;-35
2022/11/16 01:59:51;;;;;;;;;;;;;;;19.37;60.94;96025.69;5157115;27;19907;-36
2022/11/16 02:02:17;;;;;;;;;;;;;;;19.41;61.04;96024.69;5157299;27;20362;-36
2022/11/16 02:04:43;;;;;;;;;;;;;;;19.33;61.06;96025.16;5156911;27;19953;-37
2022/11/16 02:07:08;;;;;;;;;;;;;;;19.38;61.06;96018.19;5157086;27;19911;-37
2022/11/16 02:12:23;;;;;;;;;;;;;;;19.33;61.50;96024.41;5157273;27;19917;-37
2022/11/16 02:15:08;;;;;;;;;;;;;;;19.27;61.88;96018.13;5156902;27;20305;-38
2022/11/16 02:17:46;;;;;;;;;;;;;;;19.31;61.90;96013.88;5156783;27;19914;-38
2022/11/16 02:20:23;;;;;;;;;;;;;;;19.29;61.94;96013.63;5156883;27;20326;-38
2022/11/16 02:22:54;;;;;;;;;;;;;;;19.37;61.53;96008.44;5156640;27;19915;-40
2022/11/16 02:25:28;;;;;;;;;;;;;;;19.35;61.74;96005.41;5156679;27;20420;-36
2022/11/16 02:27:53;;;;;;;;;;;;;;;19.33;61.92;96000.41;5156672;27;19907;-35
2022/11/16 02:30:19;;;;;;;;;;;;;;;19.33;62.02;95994.91;5156618;27;19899;-33
2022/11/16 02:32:49;;;;;;;;;;;;;;;19.42;61.31;95991.19;5156460;27;19964;-33
2022/11/16 02:35:14;;;;;;;;;;;;;;;19.38;61.71;95990.69;5156219;27;19907;-33
2022/11/16 02:37:44;;;;;;;;;;;;;;;19.33;61.76;95994.16;5156366;27;19907;-35
2022/11/16 02:40:11;;;;;;;;;;;;;;;19.33;61.96;95989.41;5156708;27;19907;-34
2022/11/16 02:42:40;;;;;;;;;;;;;;;19.35;61.70;95977.91;5156514;27;19906;-33
2022/11/16 02:45:07;;;;;;;;;;;;;;;19.37;61.79;95975.44;5156131;27;19993;-33
2022/11/16 02:47:34;;;;;;;;;;;;;;;19.37;61.84;95980.94;5156543;27;20270;-35
2022/11/16 02:50:09;;;;;;;;;;;;;;;19.34;62.11;95968.16;5156223;27;20381;-35
2022/11/16 02:52:34;;;;;;;;;;;;;;;19.27;62.07;95974.91;5156235;27;20282;-34
2022/11/16 02:55:00;;;;;;;;;;;;;;;19.33;62.01;95972.16;5156161;27;19914;-33
2022/11/16 02:57:28;;;;;;;;;;;;;;;19.26;62.45;95972.66;5156080;27;19914;-33
2022/11/16 02:59:56;;;;;;;;;;;;;;;19.29;62.23;95966.88;5155965;27;19907;-34
2022/11/16 03:02:21;;;;;;;;;;;;;;;19.30;62.08;95973.88;5156161;27;19907;-34
2022/11/16 03:04:48;;;;;;;;;;;;;;;19.29;62.14;95966.13;5145831;27;20386;-35
2022/11/16 03:07:16;;;;;;;;;;;;;;;19.36;61.50;95966.44;5135120;27;19907;-34
2022/11/16 03:09:42;;;;;;;;;;;;;;;19.36;62.04;95958.19;5135334;27;20259;-34
2022/11/16 03:12:10;;;;;;;;;;;;;;;19.30;62.28;95962.13;5135352;27;20343;-33
2022/11/16 03:14:40;;;;;;;;;;;;;;;19.29;62.19;95957.88;5137461;27;19911;-34
2022/11/16 03:17:08;;;;;;;;;;;;;;;19.30;62.15;95962.91;5155295;27;20405;-33
2022/11/16 03:19:38;;;;;;;;;;;;;;;19.30;61.76;95962.13;5155740;27;19950;-33
2022/11/16 03:22:11;;;;;;;;;;;;;;;19.30;61.69;95945.66;5155824;27;19907;-34
2022/11/16 03:24:36;;;;;;;;;;;;;;;19.23;62.29;95951.63;5155529;27;19954;-33
2022/11/16 03:27:11;;;;;;;;;;;;;;;19.24;62.15;95936.66;5155660;27;19911;-33
2022/11/16 03:29:41;;;;;;;;;;;;;;;19.26;62.33;95951.41;5155931;27;20361;-34
2022/11/16 03:32:32;;;;;;;;;;;;;;;19.27;62.10;95941.16;5155533;27;19961;-35
2022/11/16 03:35:24;;;;;;;;;;;;;;;19.27;62.41;95952.91;5141676;27;19922;-34
2022/11/16 03:37:52;;;;;;;;;;;;;;;19.16;62.43;95952.13;5115828;27;20002;-35
2022/11/16 03:40:18;;;;;;;;;;;;;;;19.13;62.48;95951.09;5155713;27;20401;-33
2022/11/16 03:42:44;;;;;;;;;;;;;;;19.27;62.14;95949.41;5155449;27;19910;-33
2022/11/16 03:45:13;;;;;;;;;;;;;;;19.20;62.48;95947.88;5155530;27;19930;-33
2022/11/16 03:47:41;;;;;;;;;;;;;;;19.27;62.23;95949.41;5158269;27;19907;-34
2022/11/16 03:50:11;;;;;;;;;;;;;;;19.24;62.24;95944.88;5159649;27;20248;-34
2022/11/16 03:52:36;;;;;;;;;;;;;;;19.26;62.07;95951.41;5159513;27;19911;-33
2022/11/16 03:55:02;;;;;;;;;;;;;;;19.20;62.37;95950.63;5159724;27;19913;-33
2022/11/16 03:57:27;;;;;;;;;;;;;;;19.23;62.25;95944.13;5159588;27;20224;-34
2022/11/16 03:59:53;;;;;;;;;;;;;;;19.22;62.36;95945.38;5159736;27;19960;-35
2022/11/16 04:02:18;;;;;;;;;;;;;;;19.33;61.71;95950.16;5159509;27;19965;-34
2022/11/16 04:24:22;;;;;;;;;;;;;;;19.22;62.37;95928.13;5158833;27;19925;-33
2022/11/16 04:29:34;;;;;;;;;;;;;;;19.17;62.51;95929.59;5159034;27;19914;-34
2022/11/16 04:40:11;;;;;;;;;;;;;;;19.13;62.15;95931.88;5158883;27;20402;-34
2022/11/16 04:42:36;;;;;;;;;;;;;;;19.11;62.58;95920.59;5158836;27;19907;-34
2022/11/16 04:47:49;;;;;;;;;;;;;;;19.20;62.30;95919.63;5158524;27;19914;-34
2022/11/16 04:50:15;;;;;;;;;;;;;;;19.14;62.39;95919.63;5158624;27;20354;-34
2022/11/16 04:52:41;;;;;;;;;;;;;;;19.19;61.96;95912.63;5158349;27;19911;-34
2022/11/16 04:55:06;;;;;;;;;;;;;;;19.17;62.43;95912.38;5158479;27;19906;-34
2022/11/16 04:57:31;;;;;;;;;;;;;;;19.19;62.14;95912.63;5157909;27;20270;-34
2022/11/16 04:59:57;;;;;;;;;;;;;;;19.18;62.26;95905.63;5158416;27;19922;-33
2022/11/16 05:02:23;;;;;;;;;;;;;;;19.18;62.40;95897.38;5158238;27;19907;-33
2022/11/16 05:04:48;;;;;;;;;;;;;;;19.15;62.48;95901.13;5156430;27;19930;-33
2022/11/16 05:07:14;;;;;;;;;;;;;;;19.11;62.57;95890.38;5147269;27;20372;-34
2022/11/16 05:09:41;;;;;;;;;;;;;;;19.15;62.38;95881.91;5158460;27;19967;-34
2022/11/16 05:12:11;;;;;;;;;;;;;;;19.09;62.32;95881.13;5158133;27;19911;-33
2022/11/16 05:14:36;;;;;;;;;;;;;;;19.08;62.65;95887.84;5158279;27;19918;-34
2022/11/16 05:17:02;;;;;;;;;;;;;;;19.23;61.76;95891.16;5157977;27;20001;-34
2022/11/16 05:22:11;;;;;;;;;;;;;;;19.11;62.24;95892.38;5158199;27;20422;-34
2022/11/16 05:24:36;;;;;;;;;;;;;;;19.14;61.86;95883.91;5157755;27;19914;-33
2022/11/16 05:27:03;;;;;;;;;;;;;;;19.04;62.40;95890.13;5158063;27;19907;-34
2022/11/16 05:29:29;;;;;;;;;;;;;;;19.08;62.24;95891.34;5157689;27;19994;-36
2022/11/16 05:31:54;;;;;;;;;;;;;;;19.12;62.25;95880.88;5157786;27;20398;-34
2022/11/16 05:34:19;;;;;;;;;;;;;;;19.05;62.26;95869.59;5157816;27;19911;-34
2022/11/16 05:36:45;;;;;;;;;;;;;;;19.20;61.51;95879.16;5157805;27;19997;-34
2022/11/16 05:39:10;;;;;;;;;;;;;;;19.15;61.64;95879.91;5157631;27;19914;-35
2022/11/16 05:41:35;;;;;;;;;;;;;;;19.15;61.70;95873.66;5157435;27;20347;-35
2022/11/16 05:44:01;;;;;;;;;;;;;;;19.18;61.55;95867.88;5138884;27;19929;-33
2022/11/16 05:46:26;;;;;;;;;;;;;;;19.18;61.74;95867.88;5157515;27;20373;-35
2022/11/16 05:48:51;;;;;;;;;;;;;;;19.22;61.70;95859.41;5157226;27;19907;-34
2022/11/16 05:51:17;;;;;;;;;;;;;;;19.14;61.89;95863.91;5157580;27;19911;-33
2022/11/16 05:53:43;;;;;;;;;;;;;;;19.10;61.96;95860.63;5138951;27;19965;-34
2022/11/16 05:56:08;;;;;;;;;;;;;;;19.20;61.62;95853.66;5157245;27;19922;-33
2022/11/16 05:58:34;;;;;;;;;;;;;;;19.18;61.57;95851.41;5157587;27;20437;-33
2022/11/16 06:00:59;;;;;;;;;;;;;;;19.24;61.38;95851.41;5147579;27;19911;-34
2022/11/16 06:03:26;;;;;;;;;;;;;;;19.19;61.43;95852.91;5134519;27;20275;-34
2022/11/16 06:05:53;;;;;;;;;;;;;;;19.11;61.81;95851.91;5134579;27;19950;-34
2022/11/16 06:08:19;;;;;;;;;;;;;;;19.02;62.04;95847.38;5134265;27;19918;-33
2022/11/16 06:10:44;;;;;;;;;;;;;;;19.08;61.91;95838.38;5133570;27;19926;-33
2022/11/16 06:13:09;;;;;;;;;;;;;;;19.06;61.84;95836.13;5133975;27;20243;-34
2022/11/16 06:15:36;;;;;;;;;;;;;;;19.08;61.88;95830.91;5134245;27;19972;-33
2022/11/16 06:18:01;;;;;;;;;;;;;;;18.87;62.57;95827.59;5134162;27;19914;-33
2022/11/16 06:20:26;;;;;;;;;;;;;;;18.93;62.66;95825.63;5115598;27;19911;-34
2022/11/16 06:22:52;;;;;;;;;;;;;;;18.97;62.29;95817.88;5133919;27;19926;-34
2022/11/16 06:25:17;;;;;;;;;;;;;;;18.50;64.69;95827.69;5133823;27;20002;-34
2022/11/16 06:27:42;;;;;;;;;;;;;;;18.79;63.32;95843.06;5133699;27;19911;-33
2022/11/16 06:30:07;;;;;;;;;;;;;;;18.92;62.89;95832.34;5114634;27;19934;-33
2022/11/16 06:32:33;;;;;;;;;;;;;;;19.02;62.40;95830.16;5134073;27;19919;-33
2022/11/16 06:34:58;;;;;;;;;;;;;;;18.95;62.23;95833.34;5133920;27;19915;-35
2022/11/16 06:37:23;;;;;;;;;;;;;;;18.99;62.45;95833.88;5133657;27;19912;-33
2022/11/16 06:39:49;;;;;;;;;;;;;;;19.02;62.08;95836.41;5131706;27;19918;-33
2022/11/16 06:42:14;;;;;;;;;;;;;;;18.99;62.07;95842.88;5133671;27;20414;-33
2022/11/16 06:44:39;;;;;;;;;;;;;;;18.99;62.36;95839.38;5133553;27;19911;-33
2022/11/16 06:47:05;;;;;;;;;;;;;;;19.06;62.20;95841.63;5133509;27;19907;-35
2022/11/16 06:49:30;;;;;;;;;;;;;;;19.04;62.12;95843.41;5133494;27;19985;-34
2022/11/16 06:51:55;;;;;;;;;;;;;;;19.04;62.31;95849.63;5133540;27;20394;-33
2022/11/16 06:54:21;;;;;;;;;;;;;;;19.08;61.83;95844.63;5133492;27;20398;-34
2022/11/16 06:56:47;;;;;;;;;;;;;;;18.96;62.29;95849.34;5133518;27;20354;-35
2022/11/16 06:59:12;;;;;;;;;;;;;;;19.01;62.39;95854.13;5117686;27;19911;-34
2022/11/16 07:01:39;;;;;;;;;;;;;;;19.06;62.12;95846.38;5148387;27;19911;-34
2022/11/16 07:04:04;;;;;;;;;;;;;;;19.02;62.36;95849.38;5156007;27;20373;-34
2022/11/16 07:06:29;;;;;;;;;;;;;;;18.95;62.67;95845.09;5155831;27;19907;-34
2022/11/16 07:08:55;;;;;;;;;;;;;;;18.94;62.79;95840.09;5155905;27;19914;-34
2022/11/16 07:11:20;;;;;;;;;;;;;;;18.96;62.42;95832.88;5137446;27;19911;-33
2022/11/16 07:13:47;;;;;;;;;;;;;;;18.90;62.03;95837.63;5155859;27;19918;-36
2022/11/16 07:16:13;;;;;;;;;;;;;;;19.04;62.32;95816.63;5155589;27;19907;-35
2022/11/16 07:18:39;;;;;;;;;;;;;;;18.97;62.78;95830.88;5155831;27;19989;-34
2022/11/16 07:21:08;;;;;;;;;;;;;;;18.96;62.83;95832.13;5155739;27;19907;-35
2022/11/16 07:23:34;;;;;;;;;;;;;;;18.96;62.46;95818.38;5137076;27;19922;-36
2022/11/16 07:26:00;;;;;;;;;;;;;;;19.06;62.41;95821.63;5155646;27;19911;-35
2022/11/16 07:28:26;;;;;;;;;;;;;;;18.97;62.63;95817.88;5155814;27;19914;-35
2022/11/16 07:30:52;;;;;;;;;;;;;;;18.99;62.54;95814.66;5155797;27;19907;-34
2022/11/16 07:33:17;;;;;;;;;;;;;;;19.00;62.09;95808.66;5155495;27;19938;-34
2022/11/16 07:35:42;;;;;;;;;;;;;;;18.93;62.83;95811.88;5155591;27;19907;-33
2022/11/16 07:38:08;;;;;;;;;;;;;;;19.09;61.91;95804.16;5155409;27;19942;-34
2022/11/16 07:40:33;;;;;;;;;;;;;;;18.98;62.50;95797.41;5155572;27;19914;-33
2022/11/16 07:42:58;;;;;;;;;;;;;;;19.01;62.29;95798.41;5155437;27;19946;-35
2022/11/16 07:45:23;;;;;;;;;;;;;;;19.10;62.08;95800.16;5155314;27;19927;-36
2022/11/16 07:47:51;;;;;;;;;;;;;;;19.09;62.27;95793.16;5155297;27;19907;-37
2022/11/16 07:50:16;;;;;;;;;;;;;;;19.07;62.32;95801.91;5155554;27;20056;-37
2022/11/16 07:52:45;;;;;;;;;;;;;;;19.06;62.12;95794.16;5155235;27;20050;-37
2022/11/16 07:55:11;;;;;;;;;;;;;;;18.95;62.51;95798.41;5155307;27;20379;-36
2022/11/16 07:57:36;;;;;;;;;;;;;;;18.97;62.66;95806.91;5155286;27;19914;-38
2022/11/16 08:00:02;;;;;;;;;;;;;;;19.08;62.31;95816.41;5155007;27;20398;-34
2022/11/16 08:02:28;;;;;;;;;;;;;;;18.95;63.03;95812.13;5155411;27;19911;-35
2022/11/16 08:04:53;;;;;;;;;;;;;;;18.99;62.76;95796.16;5155481;27;19907;-34
2022/11/16 08:07:19;;;;;;;;;;;;;;;18.92;62.88;95802.13;5155190;27;19960;-34
2022/11/16 08:09:44;;;;;;;;;;;;;;;18.86;63.23;95797.88;5155200;27;19907;-35
2022/11/16 08:12:09;;;;;;;;;;;;;;;18.86;63.00;95793.13;5155515;27;19910;-34
2022/11/16 08:14:35;;;;;;;;;;;;;;;18.85;63.22;95804.63;5142921;27;20347;-34
2022/11/16 08:17:02;;;;;;;;;;;;;;;19.00;63.10;95816.91;5141192;27;19954;-34
2022/11/16 08:19:27;;;;;;;;;;;;;;;18.89;63.50;95805.88;5134114;28;19926;-34
2022/11/16 08:21:53;;;;;;;;;;;;;;;18.87;63.67;95805.63;5115722;28;20286;-34
2022/11/16 08:24:18;;;;;;;;;;;;;;;19.00;63.33;95803.16;5144697;27;19915;-33
2022/11/16 08:26:44;;;;;;;;;;;;;;;18.89;63.50;95819.63;5154117;27;19994;-34
2022/11/16 08:29:10;;;;;;;;;;;;;;;18.87;63.08;95813.88;5154444;27;19907;-34
2022/11/16 08:31:35;;;;;;;;;;;;;;;18.90;63.83;95810.13;5154637;27;19911;-34
2022/11/16 08:34:01;;;;;;;;;;;;;;;17.85;71.25;95810.38;5157036;27;19918;-32
2022/11/16 08:36:26;;;;;;;;;;;;;;;17.79;70.84;95810.34;5157875;27;20281;-33
2022/11/16 08:38:52;;;;;;;;;;;;;;;18.31;68.57;95816.38;5158598;27;19960;-33
2022/11/16 08:41:18;;;;;;;;;;;;;;;18.69;66.45;95806.06;5158402;27;19922;-34
2022/11/16 08:43:45;;;;;;;;;;;;;;;18.88;65.83;95803.63;5158684;27;20329;-33
2022/11/16 08:46:11;;;;;;;;;;;;;;;18.81;65.24;95813.09;5139299;27;19942;-33
2022/11/16 08:48:36;;;;;;;;;;;;;;;19.02;64.62;95805.41;5157350;27;19946;-33
2022/11/16 08:51:03;;;;;;;;;;;;;;;19.08;64.17;95808.16;5158082;27;19907;-33
2022/11/16 08:53:28;;;;;;;;;;;;;;;19.11;63.40;95812.66;5153984;27;20009;-34
2022/11/16 08:55:54;;;;;;;;;;;;;;;18.96;64.24;95807.38;5158590;27;19954;-35
2022/11/16 08:58:19;;;;;;;;;;;;;;;19.05;63.64;95798.16;5158639;27;20009;-33
2022/11/16 09:00:44;;;;;;;;;;;;;;;19.02;63.93;95795.19;5156097;27;19911;-33
2022/11/16 09:03:09;;;;;;;;;;;;;;;19.01;63.85;95792.91;5155821;27;19911;-33
2022/11/16 09:05:35;;;;;;;;;;;;;;;19.16;63.12;95800.94;5158435;27;19914;-35
2022/11/16 09:08:00;;;;;;;;;;;;;;;19.12;63.11;95798.44;5158296;27;19918;-33
2022/11/16 09:10:25;;;;;;;;;;;;;;;18.94;63.84;95790.63;5158159;27;20423;-35
2022/11/16 09:12:51;;;;;;;;;;;;;;;18.95;63.77;95795.66;5158196;27;19917;-34
2022/11/16 09:15:18;;;;;;;;;;;;;;;19.02;63.60;95795.19;5158070;27;19907;-33
2022/11/16 09:17:44;;;;;;;;;;;;;;;19.05;63.58;95798.91;5158102;27;19913;-34
2022/11/16 09:20:09;;;;;;;;;;;;;;;19.07;63.37;95812.91;5158287;27;19906;-33
2022/11/16 09:22:34;;;;;;;;;;;;;;;19.02;63.31;95802.66;5157781;27;19906;-33
2022/11/16 09:25:00;;;;;;;;;;;;;;;19.12;63.22;95819.66;5157454;27;19907;-35
2022/11/16 09:27:25;;;;;;;;;;;;;;;19.05;63.54;95804.41;5158569;27;20381;-34
2022/11/16 09:29:51;;;;;;;;;;;;;;;19.03;63.64;95795.94;5157883;27;19907;-34
2022/11/16 09:32:16;;;;;;;;;;;;;;;19.04;63.52;95797.41;5157826;27;20009;-33
2022/11/16 09:34:41;;;;;;;;;;;;;;;19.09;63.58;95799.41;5157610;27;19911;-34
2022/11/16 09:37:07;;;;;;;;;;;;;;;19.12;63.32;95803.19;5157853;27;20067;-33
2022/11/16 09:39:33;;;;;;;;;;;;;;;19.16;63.20;95796.19;5157632;27;20027;-33
2022/11/16 09:42:07;;;;;;;;;;;;;;;19.15;63.27;95786.44;5157598;27;19918;-33
2022/11/16 09:44:42;;;;;;;;;;;;;;;19.00;63.69;95780.44;5156533;27;19906;-34
2022/11/16 09:47:14;;;;;;;;;;;;;;;19.07;63.18;95779.16;5157899;27;19960;-35
2022/11/16 09:49:42;;;;;;;;;;;;;;;19.14;62.98;95779.44;5157367;27;19907;-33
2022/11/16 09:52:09;;;;;;;;;;;;;;;18.93;63.95;95776.16;5157384;27;20099;-33
2022/11/16 09:54:39;;;;;;;;;;;;;;;19.05;63.31;95776.16;5157300;27;20374;-35
2022/11/16 09:57:10;;;;;;;;;;;;;;;19.01;64.06;95770.94;5157368;27;20007;-34
2022/11/16 09:59:50;;;;;;;;;;;;;;;19.02;63.50;95772.44;5157333;27;19911;-33
2022/11/16 10:02:15;;;;;;;;;;;;;;;19.09;63.60;95754.69;5157297;27;20005;-33
2022/11/16 10:04:49;;;;;;;;;;;;;;;19.18;62.92;95760.69;5156952;27;19949;-33
2022/11/16 10:07:17;;;;;;;;;;;;;;;19.18;63.21;95762.69;5157106;27;19907;-33
2022/11/16 10:09:44;;;;;;;;;;;;;;;19.13;63.18;95757.97;5157445;27;19959;-33
2022/11/16 10:12:09;;;;;;;;;;;;;;;19.10;63.09;95750.69;5157228;27;19907;-34
2022/11/16 10:14:56;;;;;;;;;;;;;;;19.15;63.17;95738.97;5156909;27;19918;-34
2022/11/16 10:17:33;;;;;;;;;;;;;;;19.06;63.33;95736.44;5105593;27;19911;-34
2022/11/16 10:20:15;;;;;;;;;;;;;;;19.15;62.84;95733.47;5156753;27;19917;-34
2022/11/16 10:22:43;;;;;;;;;;;;;;;19.14;62.86;95738.22;5156824;27;21375;-33
2022/11/16 10:25:19;;;;;;;;;;;;;;;19.02;63.40;95720.22;5156775;27;20376;-33
2022/11/16 10:28:03;;;;;;;;;;;;;;;18.92;63.83;95722.44;5156737;27;19939;-35
2022/11/16 10:30:31;;;;;;;;;;;;;;;19.14;63.12;95708.00;5138236;27;19911;-34
2022/11/16 10:33:00;;;;;;;;;;;;;;;19.12;63.21;95704.22;5156546;27;19918;-35
2022/11/16 10:35:34;;;;;;;;;;;;;;;19.17;62.85;95695.97;5156592;27;19978;-33
2022/11/16 10:38:02;;;;;;;;;;;;;;;18.99;63.36;95688.25;5156501;27;19914;-34
2022/11/16 10:40:34;;;;;;;;;;;;;;;18.97;63.77;95683.25;5137803;27;19918;-33
2022/11/16 10:43:00;;;;;;;;;;;;;;;19.06;63.30;95678.75;5156293;27;20381;-34
2022/11/16 10:45:32;;;;;;;;;;;;;;;18.98;63.54;95673.75;5156549;27;19907;-34
2022/11/16 10:48:02;;;;;;;;;;;;;;;19.13;63.36;95678.25;5156334;27;19915;-35
2022/11/16 10:50:31;;;;;;;;;;;;;;;18.91;64.15;95668.03;5145270;27;19968;-33
2022/11/16 10:52:57;;;;;;;;;;;;;;;19.05;63.93;95664.25;5151218;27;19915;-34
2022/11/16 10:55:23;;;;;;;;;;;;;;;19.10;63.92;95660.00;5149851;27;19911;-33
2022/11/16 10:57:58;;;;;;;;;;;;;;;19.05;64.25;95655.25;5133445;27;20583;-35
2022/11/16 11:00:34;;;;;;;;;;;;;;;19.16;63.56;95647.03;5136123;27;19912;-34
2022/11/16 11:03:00;;;;;;;;;;;;;;;19.21;63.26;95646.25;5133183;27;19955;-34
2022/11/16 11:05:25;;;;;;;;;;;;;;;19.21;63.09;95636.00;5133537;27;19950;-33
2022/11/16 11:08:11;;;;;;;;;;;;;;;19.24;62.74;95639.75;5139746;27;19911;-34
2022/11/16 11:10:38;;;;;;;;;;;;;;;19.21;63.20;95633.25;5153247;27;19938;-33
2022/11/16 11:13:09;;;;;;;;;;;;;;;19.22;63.12;95631.25;5153666;27;20352;-33
2022/11/16 11:15:35;;;;;;;;;;;;;;;19.12;63.42;95628.03;5153906;27;19954;-34
2022/11/16 11:18:19;;;;;;;;;;;;;;;19.11;63.60;95617.53;5153879;27;19914;-34
2022/11/16 11:20:50;;;;;;;;;;;;;;;19.17;63.22;95623.75;5153349;27;20393;-33
2022/11/16 11:23:15;;;;;;;;;;;;;;;19.20;63.03;95609.75;5151824;27;20130;-33
2022/11/16 11:25:47;;;;;;;;;;;;;;;19.20;63.29;95631.75;5153650;27;19958;-33
2022/11/16 11:28:12;;;;;;;;;;;;;;;19.08;63.79;95622.03;5153690;27;19952;-33
2022/11/16 11:30:38;;;;;;;;;;;;;;;19.15;63.46;95607.03;5153750;27;19914;-34
2022/11/16 11:33:08;;;;;;;;;;;;;;;19.12;63.88;95600.53;5153590;27;20359;-34
2022/11/16 11:35:33;;;;;;;;;;;;;;;19.02;63.91;95594.56;5135038;27;19906;-33
2022/11/16 11:38:00;;;;;;;;;;;;;;;19.11;63.71;95604.53;5153115;27;20271;-35
2022/11/16 11:40:29;;;;;;;;;;;;;;;19.23;63.24;95595.03;5153262;27;19907;-34
2022/11/16 11:42:56;;;;;;;;;;;;;;;19.13;63.34;95587.56;5153423;27;19969;-33
2022/11/16 11:45:24;;;;;;;;;;;;;;;19.05;63.90;95586.56;5153331;27;19970;-34
2022/11/16 11:47:53;;;;;;;;;;;;;;;19.08;63.98;95585.56;5153526;27;20056;-34
2022/11/16 11:50:19;;;;;;;;;;;;;;;19.20;63.23;95592.53;5153310;27;19915;-33
2022/11/16 11:53:08;;;;;;;;;;;;;;;19.06;63.89;95582.56;5134776;27;20686;-33
2022/11/16 11:55:33;;;;;;;;;;;;;;;19.07;63.91;95581.31;5153350;27;19911;-33
2022/11/16 11:58:00;;;;;;;;;;;;;;;18.99;64.22;95570.84;5138758;27;20374;-33
2022/11/16 12:00:28;;;;;;;;;;;;;;;18.94;64.73;95574.34;5133978;28;19911;-33
2022/11/16 12:03:29;;;;;;;;;;;;;;;18.99;64.38;95564.59;5134297;28;19914;-33
2022/11/16 12:06:20;;;;;;;;;;;;;;;19.18;63.60;95560.03;5030369;28;19920;-33
2022/11/16 12:08:51;;;;;;;;;;;;;;;19.06;63.99;95560.56;5031541;28;20301;-34
2022/11/16 12:11:32;;;;;;;;;;;;;;;18.97;64.18;95551.34;5035193;28;19909;-33
2022/11/16 12:14:23;;;;;;;;;;;;;;;19.12;63.96;95550.31;5035346;28;19913;-33
2022/11/16 12:16:57;;;;;;;;;;;;;;;19.13;63.96;95554.56;5012993;28;19909;-33
2022/11/16 12:19:23;;;;;;;;;;;;;;;19.14;64.04;95547.81;5035011;28;20003;-33
2022/11/16 12:21:56;;;;;;;;;;;;;;;19.12;63.90;95547.56;5036118;28;20099;-33
2022/11/16 12:24:27;;;;;;;;;;;;;;;19.07;64.39;95543.59;5046765;28;19920;-33
2022/11/16 12:27:10;;;;;;;;;;;;;;;19.13;64.07;95540.81;5032759;28;19913;-34
2022/11/16 12:29:45;;;;;;;;;;;;;;;19.06;64.65;95546.81;5048471;28;19913;-34
2022/11/16 12:32:13;;;;;;;;;;;;;;;18.97;65.71;95551.34;5052640;28;19919;-33
2022/11/16 12:34:48;;;;;;;;;;;;;;;19.09;64.81;95551.31;5052194;28;19921;-33
2022/11/16 12:37:20;;;;;;;;;;;;;;;19.00;65.21;95561.34;5052633;28;19909;-34
2022/11/16 12:39:55;;;;;;;;;;;;;;;18.97;65.26;95523.13;5099863;27;19957;-34
2022/11/16 12:42:26;;;;;;;;;;;;;;;19.15;64.54;95536.34;5156803;27;19997;-33
2022/11/16 12:44:57;;;;;;;;;;;;;;;19.05;64.86;95532.34;5156786;27;19911;-34
2022/11/16 12:47:22;;;;;;;;;;;;;;;19.16;64.37;95526.09;5156582;27;19915;-34
2022/11/16 12:50:02;;;;;;;;;;;;;;;19.09;64.44;95518.34;5155070;27;19918;-33
2022/11/16 12:52:47;;;;;;;;;;;;;;;19.07;64.95;95513.34;5156702;27;19922;-34
2022/11/16 12:55:28;;;;;;;;;;;;;;;19.17;64.21;95500.06;5156809;27;19957;-33
2022/11/16 12:58:12;;;;;;;;;;;;;;;19.05;64.80;95506.84;5156121;27;19911;-33
2022/11/16 13:00:46;;;;;;;;;;;;;;;18.93;65.09;95497.91;5156441;27;19918;-33
2022/11/16 13:03:31;;;;;;;;;;;;;;;19.13;64.49;95494.84;5156321;27;19907;-33
2022/11/16 13:06:26;;;;;;;;;;;;;;;19.06;64.95;95497.38;5153186;27;19911;-33
2022/11/16 13:08:51;;;;;;;;;;;;;;;19.15;64.51;95514.34;5138610;27;19907;-33
2022/11/16 13:11:16;;;;;;;;;;;;;;;18.98;65.19;95508.88;5155831;27;19958;-33
2022/11/16 13:13:43;;;;;;;;;;;;;;;19.00;65.07;95495.41;5156250;27;20306;-33
2022/11/16 13:16:09;;;;;;;;;;;;;;;18.99;65.44;95474.66;5155991;27;19964;-34
2022/11/16 13:18:37;;;;;;;;;;;;;;;19.10;65.14;95464.88;5156016;27;19915;-38
2022/11/16 13:21:06;;;;;;;;;;;;;;;19.02;65.26;95481.91;5156060;27;20362;-33
2022/11/16 13:23:40;;;;;;;;;;;;;;;18.93;66.10;95475.91;5155471;27;19918;-34
2022/11/16 13:26:09;;;;;;;;;;;;;;;19.01;65.47;95474.16;5155173;27;19918;-35
2022/11/16 13:28:53;;;;;;;;;;;;;;;19.15;64.68;95455.88;5155620;27;19911;-33
2022/11/16 13:31:20;;;;;;;;;;;;;;;18.95;64.98;95440.44;5155596;27;19914;-34